Decoded Metar for PAOO (TOKSOOK BAY in AK, USA) (IATA:N/A) | Meteo·Mobile Aviation Weather
aviador You're here:

PAOO Decoded Metar

TOKSOOK BAY in AK, USA
Report Time2018-11-16 17:27:00
UTC Time2018-11-16 17:50:58
Flight Rules ifr IFR
Wind070° at 13 kt
W.Decomp.*RWY 34: 2.7 kt HW 12.7 kt RCW
W.Rank070° ranks 14
Current wind is above 070° avg. (12.4)
Visibility9999 m
Phenomena:N/A
Clouds:Broken 007 Hf
Overcast 012 Hf
Expected CloudBase > 400 ft AGL from Temp-Dew spread
Ceiling700 ft
Temp01°C (ISA -14)
Dew Point00°C (93% RH)
AAT-5.7°C
QNH1005 hPa
Density Alt-1,276 ft
Elevation59 ft
Report Wrong Elevation
Raw Report
PAOO 161727Z AUTO 07013KT 9SM BKN007 OVC012 01/00 A2969 RMK AO2
CIG 006V010 FZRANO=

Extra information for PAOO:More info

Metar Taf Metar & Taf Last 4 Metars F.Rules Stats Wind Profile Meteogram Temp Stats Airport Information Weather charts Add Link Nearby VenuesMetar ALERT Operation Metar Decoded Social comments

AIRNAV info for PAOO